Time;durP1;ratioP1;P1;durP2;ratioP2;P2;SDS_P1;SDS_P2;PMS_P1;PMS_P2;Temp;Humidity;BMP_temperature;BMP_pressure;BME280_temperature;BME280_humidity;BME280_pressure;Samples;Min_cycle;Max_cycle;Signal;HPM_P1;HPM_P2
2023/08/09 00:04:18;;;;;;;11.77;10.18;;;;;;;12.94;87.35;97951.19;10417153;28;20539;-49
2023/08/09 00:09:17;;;;;;;;;;;;;;;12.99;87.16;97957.22;10409281;28;20064;-49
2023/08/09 00:14:16;;;;;;;10.07;8.57;;;;;;;12.97;87.39;97958.97;10416280;28;20021;-53
2023/08/09 00:19:15;;;;;;;11.82;9.38;;;;;;;12.93;87.42;97955.53;10416362;28;20028;-49
2023/08/09 00:24:14;;;;;;;12.73;10.70;;;;;;;12.94;87.29;97951.19;10415893;28;20038;-51
2023/08/09 00:29:13;;;;;;;11.93;10.48;;;;;;;12.99;87.21;97945.94;10415848;28;20020;-49
2023/08/09 00:34:12;;;;;;;11.63;10.00;;;;;;;12.98;87.11;97942.47;10415531;28;20410;-51
2023/08/09 00:39:11;;;;;;;15.23;10.63;;;;;;;12.97;87.51;97940.75;10415550;28;20047;-50
2023/08/09 00:44:10;;;;;;;11.70;9.75;;;;;;;12.78;89.15;97940.00;10414824;28;20067;-50
2023/08/09 00:49:10;;;;;;;10.85;9.63;;;;;;;12.52;89.04;97895.94;10414934;28;20024;-49
2023/08/09 00:54:09;;;;;;;12.30;10.70;;;;;;;12.81;88.83;97936.50;10414937;28;20515;-50
2023/08/09 00:59:08;;;;;;;11.95;10.65;;;;;;;12.76;88.49;97936.53;10414636;28;20052;-51
2023/08/09 01:04:07;;;;;;;13.23;11.38;;;;;;;12.60;88.38;97920.19;10414871;28;20036;-52
2023/08/09 01:09:12;;;;;;;13.75;11.63;;;;;;;12.75;88.53;97950.47;10417653;28;20114;-48
2023/08/09 01:14:14;;;;;;;14.75;12.35;;;;;;;12.68;88.97;97939.22;10417295;28;20037;-51
2023/08/09 01:19:45;;;;;;;13.05;11.68;;;;;;;12.69;88.85;97946.13;10410834;28;20056;-50
2023/08/09 01:24:45;;;;;;;12.48;11.18;;;;;;;12.70;88.48;97928.78;10413101;28;20086;-48
2023/08/09 01:29:44;;;;;;;12.18;10.88;;;;;;;12.72;88.51;97940.94;10416056;28;20087;-51
2023/08/09 01:34:43;;;;;;;;;;;;;;;12.63;89.10;97935.78;10417357;28;20067;-48
2023/08/09 01:39:44;;;;;;;13.65;11.63;;;;;;;12.64;89.06;97932.28;10416492;28;19912;-50
2023/08/09 01:44:44;;;;;;;13.95;11.90;;;;;;;12.55;89.51;97942.75;10416451;28;20048;-50
2023/08/09 01:49:45;;;;;;;15.38;11.90;;;;;;;12.41;90.21;97928.97;10416355;28;20064;-51
2023/08/09 01:54:44;;;;;;;15.85;13.15;;;;;;;12.34;90.10;97941.13;10415748;28;20072;-51
2023/08/09 01:59:44;;;;;;;16.90;13.65;;;;;;;12.20;90.66;97946.38;10416257;28;20064;-49
2023/08/09 02:04:43;;;;;;;16.58;14.18;;;;;;;12.17;90.84;97945.53;10415094;28;20470;-51
2023/08/09 02:09:42;;;;;;;17.35;14.27;;;;;;;12.13;91.05;97944.66;10412124;28;20380;-49
2023/08/09 02:14:41;;;;;;;19.00;15.23;;;;;;;12.03;91.11;97937.78;10412009;28;20128;-50
2023/08/09 02:19:39;;;;;;;16.08;13.43;;;;;;;12.08;91.83;97956.84;10412072;28;20459;-51
2023/08/09 02:24:38;;;;;;;17.58;13.15;;;;;;;12.07;91.49;97947.31;10412021;28;20488;-48
2023/08/09 02:29:37;;;;;;;17.75;13.75;;;;;;;12.07;91.25;97949.91;10411804;28;20592;-49
2023/08/09 02:34:36;;;;;;;18.52;13.30;;;;;;;12.01;91.82;97955.13;10417007;28;20067;-48
2023/08/09 02:39:36;;;;;;;18.92;14.23;;;;;;;11.82;92.20;97933.53;10420264;28;20019;-50
2023/08/09 02:44:35;;;;;;;19.98;13.30;;;;;;;11.83;92.21;97962.13;10420394;28;20451;-51
2023/08/09 02:49:34;;;;;;;16.85;13.00;;;;;;;11.79;92.99;97965.59;10419655;28;20562;-49
2023/08/09 02:54:33;;;;;;;19.15;14.35;;;;;;;11.69;93.75;97969.09;10412244;28;20079;-49
2023/08/09 02:59:32;;;;;;;18.10;15.07;;;;;;;11.64;93.38;97974.31;10420246;28;20024;-51
2023/08/09 03:04:32;;;;;;;21.23;15.57;;;;;;;11.63;93.40;97979.50;10418505;28;20032;-52
2023/08/09 03:09:31;;;;;;;21.88;17.15;;;;;;;11.64;93.37;97983.81;10418249;28;20076;-48
2023/08/09 03:14:30;;;;;;;;;;;;;;;11.63;93.00;97987.28;10418831;28;20091;-50
2023/08/09 03:19:29;;;;;;;22.33;15.77;;;;;;;11.64;93.70;97981.22;10418794;28;19959;-50
2023/08/09 03:24:28;;;;;;;21.20;16.25;;;;;;;11.67;93.06;97989.88;10418887;28;20020;-50
2023/08/09 03:29:28;;;;;;;22.67;17.05;;;;;;;11.63;92.76;97974.28;10417094;28;20497;-49
2023/08/09 03:34:27;;;;;;;24.77;16.88;;;;;;;11.73;93.02;97989.00;10417075;28;20078;-49
2023/08/09 03:39:26;;;;;;;23.25;16.90;;;;;;;11.53;93.39;97957.00;10417776;28;20027;-50
2023/08/09 03:44:26;;;;;;;23.63;16.02;;;;;;;11.62;93.29;97988.19;10416392;28;20396;-48
2023/08/09 03:49:25;;;;;;;17.50;14.52;;;;;;;11.51;94.02;97989.91;10417374;28;20078;-50
2023/08/09 03:54:24;;;;;;;17.90;14.00;;;;;;;11.22;94.71;97988.16;10416994;28;20024;-49
2023/08/09 03:59:23;;;;;;;19.27;15.15;;;;;;;11.25;94.89;98011.56;10416968;28;20036;-50
2023/08/09 04:04:22;;;;;;;16.38;12.15;;;;;;;11.07;95.76;98025.41;10417664;28;20067;-50
2023/08/09 04:09:21;;;;;;;15.30;13.18;;;;;;;11.10;95.75;98019.34;10409341;28;20078;-52
2023/08/09 04:14:20;;;;;;;15.65;12.48;;;;;;;11.27;94.92;98029.75;10416471;28;20046;-49
2023/08/09 04:19:19;;;;;;;19.85;14.45;;;;;;;11.39;94.12;98028.03;10416453;28;20119;-49
2023/08/09 04:24:19;;;;;;;20.90;13.88;;;;;;;11.55;94.27;98021.09;10384647;28;20123;-51
2023/08/09 04:29:18;;;;;;;17.42;12.55;;;;;;;11.73;93.35;98016.75;10414537;28;20071;-51
2023/08/09 04:34:17;;;;;;;17.77;13.43;;;;;;;11.87;93.10;98012.38;10416000;28;20035;-52
2023/08/09 04:39:16;;;;;;;15.77;12.38;;;;;;;12.06;92.58;98014.09;10414294;28;20032;-48
2023/08/09 04:44:15;;;;;;;23.48;15.00;;;;;;;12.13;92.26;98012.31;10414820;28;20331;-49
2023/08/09 05:09:48;;;;;;;16.30;13.27;;;;;;;12.24;93.60;98014.88;10413228;27;20375;-49
2023/08/09 05:14:47;;;;;;;17.10;13.70;;;;;;;12.40;93.34;98010.53;10406513;28;20048;-50
2023/08/09 05:19:46;;;;;;;14.73;13.13;;;;;;;12.62;92.91;98017.34;10408382;28;20029;-52
2023/08/09 05:24:45;;;;;;;;;;;;;;;12.78;92.71;98017.28;10407760;28;20064;-51
2023/08/09 05:29:44;;;;;;;14.70;12.15;;;;;;;12.92;92.02;98015.44;10408501;28;19930;-51
2023/08/09 05:34:43;;;;;;;18.05;13.23;;;;;;;13.09;92.01;98012.72;10407273;28;20076;-51
2023/08/09 05:39:42;;;;;;;16.17;13.43;;;;;;;13.32;90.86;98004.75;10405792;28;20076;-50
2023/08/09 05:44:41;;;;;;;;;;;;;;;13.52;89.87;98018.47;10408293;28;20031;-51
2023/08/09 05:49:40;;;;;;;14.70;12.30;;;;;;;13.66;89.56;98007.09;10407394;28;19958;-51
2023/08/09 05:54:39;;;;;;;;;;;;;;;13.86;88.64;98015.59;10401758;28;20032;-52
2023/08/09 05:59:37;;;;;;;15.00;12.68;;;;;;;14.20;87.33;98012.63;10406807;28;19982;-47
2023/08/09 06:04:37;;;;;;;;;;;;;;;14.43;86.52;98011.47;10408285;28;20031;-50
2023/08/09 06:09:35;;;;;;;13.85;12.38;;;;;;;14.64;85.48;98003.41;10385066;28;19924;-50
2023/08/09 06:14:34;;;;;;;;;;;;;;;14.94;84.30;98009.94;10379982;28;20061;-49
2023/08/09 06:19:33;;;;;;;14.77;11.70;;;;;;;15.15;81.74;98006.16;10380571;28;19913;-51
2023/08/09 06:24:32;;;;;;;;;;;;;;;15.32;81.78;98003.28;10379061;28;20036;-50
2023/08/09 06:29:32;;;;;;;13.30;11.70;;;;;;;15.59;80.22;98001.09;10379908;28;19924;-51
2023/08/09 06:34:31;;;;;;;11.55;10.00;;;;;;;15.70;79.24;97993.06;10378716;28;20049;-49
2023/08/09 06:39:30;;;;;;;;;;;;;;;15.86;78.06;97992.78;10379534;28;20055;-52
2023/08/09 06:44:29;;;;;;;55.97;13.80;;;;;;;16.22;77.53;97984.25;10378182;28;19913;-48
2023/08/09 06:49:28;;;;;;;;;;;;;;;16.60;76.07;97972.13;10378169;28;20055;-50
2023/08/09 06:54:27;;;;;;;15.50;13.60;;;;;;;16.87;73.58;97971.53;10378385;28;20007;-48
2023/08/09 06:59:26;;;;;;;10.30;8.48;;;;;;;17.08;71.91;97970.19;10378528;28;20064;-51
2023/08/09 07:04:26;;;;;;;9.43;8.32;;;;;;;17.19;70.97;97948.97;10377353;28;20060;-52
2023/08/09 07:09:25;;;;;;;7.18;6.20;;;;;;;17.28;66.60;97963.59;10377692;28;20075;-51
2023/08/09 07:14:24;;;;;;;8.05;7.00;;;;;;;17.42;67.14;97963.25;10377243;28;20033;-50
2023/08/09 07:19:23;;;;;;;8.55;6.45;;;;;;;17.69;66.42;97951.19;10376952;28;20068;-52
2023/08/09 07:24:22;;;;;;;7.15;6.45;;;;;;;17.89;65.31;97953.28;10376879;28;20079;-50
2023/08/09 07:29:22;;;;;;;30.25;7.47;;;;;;;18.08;64.30;97927.38;10377740;28;20027;-49
2023/08/09 07:34:21;;;;;;;6.88;6.28;;;;;;;18.59;61.90;97940.75;10376834;28;20069;-51
2023/08/09 07:39:20;;;;;;;6.70;5.85;;;;;;;18.17;61.44;97822.06;10376949;28;20040;-50
2023/08/09 07:44:19;;;;;;;5.78;5.28;;;;;;;19.30;59.59;97938.56;10376144;28;20102;-48
2023/08/09 07:49:17;;;;;;;5.95;4.82;;;;;;;19.43;56.83;97931.13;10376205;28;20560;-50
2023/08/09 07:54:17;;;;;;;7.03;5.45;;;;;;;19.28;56.77;97914.09;10375388;28;20028;-48
2023/08/09 07:59:18;;;;;;;5.50;4.70;;;;;;;19.57;54.73;97922.78;10375731;28;20064;-49
2023/08/09 08:04:17;;;;;;;7.28;4.38;;;;;;;19.61;53.72;97908.59;10375131;28;20064;-52
2023/08/09 08:09:16;;;;;;;9.45;4.53;;;;;;;19.95;53.97;97904.75;10374752;28;20132;-49
2023/08/09 08:14:15;;;;;;;5.38;4.05;;;;;;;20.15;53.27;97897.00;10375663;28;20076;-50
2023/08/09 08:19:14;;;;;;;9.57;5.18;;;;;;;20.41;53.82;97892.53;10374760;28;20064;-49
2023/08/09 08:24:14;;;;;;;4.25;3.85;;;;;;;20.41;51.32;97884.63;10375418;28;20045;-51
2023/08/09 08:29:12;;;;;;;4.55;3.88;;;;;;;20.42;50.37;97857.34;10374499;28;20517;-51
2023/08/09 08:34:11;;;;;;;4.40;4.00;;;;;;;20.77;50.87;97890.22;10374334;28;20029;-50
2023/08/09 08:39:14;;;;;;;4.50;4.15;;;;;;;21.15;52.03;97885.19;10374356;28;20473;-51
2023/08/09 08:44:13;;;;;;;5.95;3.95;;;;;;;21.25;51.04;97844.31;10368483;28;20507;-49
2023/08/09 08:49:17;;;;;;;5.88;4.28;;;;;;;21.67;50.33;97872.41;10374051;28;20483;-51
2023/08/09 08:54:18;;;;;;;4.38;3.53;;;;;;;21.55;48.63;97878.25;10373990;28;20068;-51
2023/08/09 08:59:17;;;;;;;3.55;3.25;;;;;;;21.81;48.63;97857.75;10374335;28;20083;-53
2023/08/09 09:04:16;;;;;;;7.80;3.88;;;;;;;22.08;49.27;97871.50;10372537;28;20075;-51
2023/08/09 09:09:15;;;;;;;4.55;3.88;;;;;;;22.24;48.97;97835.50;10373420;28;20062;-51
2023/08/09 09:14:15;;;;;;;4.57;3.72;;;;;;;22.48;46.62;97859.94;10374122;28;20077;-48
2023/08/09 09:19:14;;;;;;;3.90;3.60;;;;;;;22.72;46.31;97852.63;10372962;28;20063;-51
2023/08/09 09:24:13;;;;;;;5.63;3.72;;;;;;;22.70;46.46;97824.53;10373296;28;20088;-52
2023/08/09 09:29:12;;;;;;;3.65;3.35;;;;;;;22.82;46.76;97841.63;10374048;28;20106;-52
2023/08/09 09:34:14;;;;;;;5.13;3.97;;;;;;;22.82;45.75;97833.69;10372939;28;20076;-52
2023/08/09 09:39:13;;;;;;;3.47;3.00;;;;;;;22.85;45.87;97826.44;10373792;28;20064;-51
2023/08/09 09:44:17;;;;;;;3.72;3.42;;;;;;;22.95;45.61;97822.41;10378515;28;20518;-49
2023/08/09 09:49:16;;;;;;;3.53;3.22;;;;;;;23.17;44.61;97813.38;10380098;28;20059;-49
2023/08/09 09:54:16;;;;;;;4.22;3.40;;;;;;;23.31;44.02;97807.38;10380436;28;20039;-50
2023/08/09 09:59:15;;;;;;;3.30;3.00;;;;;;;23.55;44.55;97802.63;10380932;28;20072;-51
2023/08/09 10:04:16;;;;;;;3.83;3.10;;;;;;;23.58;44.71;97790.09;10380392;28;20055;-50
2023/08/09 10:09:16;;;;;;;3.53;3.22;;;;;;;23.88;44.34;97778.75;10379698;28;20083;-52
2023/08/09 10:14:17;;;;;;;4.70;3.38;;;;;;;23.90;43.28;97782.19;10380407;28;20072;-50
2023/08/09 10:19:20;;;;;;;5.70;3.33;;;;;;;24.17;44.15;97765.66;10379581;28;20456;-52
2023/08/09 10:24:19;;;;;;;3.55;3.25;;;;;;;24.31;43.40;97763.16;10380191;28;20080;-52
2023/08/09 10:29:21;;;;;;;3.80;3.50;;;;;;;24.46;43.09;97761.41;10379611;28;20032;-50
2023/08/09 10:34:40;;;;;;;3.13;2.90;;;;;;;24.68;42.87;97750.41;10379069;28;20060;-50
2023/08/09 10:39:41;;;;;;;4.40;3.30;;;;;;;24.84;42.12;97740.59;10377925;28;20076;-51
2023/08/09 10:44:45;;;;;;;3.97;3.00;;;;;;;24.87;41.08;97735.16;10377556;28;20070;-50
2023/08/09 10:49:53;;;;;;;3.00;2.80;;;;;;;25.00;40.81;97732.63;10372827;28;20075;-52
2023/08/09 10:55:24;;;;;;;2.73;2.53;;;;;;;25.11;40.24;97729.34;10378564;28;20099;-50
2023/08/09 11:00:25;;;;;;;3.00;2.63;;;;;;;25.27;40.01;97724.78;10378274;28;20052;-49
2023/08/09 11:05:27;;;;;;;3.00;2.70;;;;;;;25.40;39.95;97716.06;10377721;28;20072;-51
2023/08/09 11:10:37;;;;;;;3.13;2.83;;;;;;;25.28;40.12;97718.53;10378484;28;20094;-49
2023/08/09 11:15:37;;;;;;;3.35;2.67;;;;;;;25.39;40.81;97677.19;10377406;28;20070;-52
2023/08/09 11:20:36;;;;;;;3.13;2.90;;;;;;;25.51;40.01;97641.88;10377180;28;20075;-51
2023/08/09 11:25:35;;;;;;;3.40;2.72;;;;;;;26.12;39.52;97703.56;10377439;28;20043;-51
2023/08/09 11:30:34;;;;;;;3.90;2.75;;;;;;;25.96;39.16;97687.72;10377515;28;20069;-52
2023/08/09 11:35:43;;;;;;;2.72;2.53;;;;;;;26.04;39.73;97689.88;10376476;28;20454;-53
2023/08/09 11:40:48;;;;;;;3.47;2.70;;;;;;;25.78;39.39;97657.00;10370579;28;20072;-50
2023/08/09 11:45:53;;;;;;;3.60;2.75;;;;;;;26.14;39.33;97678.56;10376201;28;20683;-50
2023/08/09 11:51:20;;;;;;;4.57;2.47;;;;;;;26.37;38.81;97670.91;10377166;28;20069;-52
2023/08/09 11:56:21;;;;;;;3.63;2.83;;;;;;;26.57;37.30;97673.06;10374911;28;20076;-52
2023/08/09 12:01:28;;;;;;;2.88;2.50;;;;;;;26.69;38.11;97670.53;10375867;28;20060;-52
2023/08/09 12:06:45;;;;;;;3.72;2.55;;;;;;;26.65;36.98;97656.59;10375527;28;20080;-49
2023/08/09 12:11:50;;;;;;;3.47;2.20;;;;;;;26.32;37.53;97663.25;10375608;28;20068;-52
2023/08/09 12:16:49;;;;;;;2.72;2.47;;;;;;;26.45;38.15;97652.63;10368910;28;20072;-52
2023/08/09 12:21:48;;;;;;;2.83;2.63;;;;;;;26.73;38.22;97646.28;10374913;28;20033;-51
2023/08/09 12:26:47;;;;;;;2.40;2.20;;;;;;;27.17;36.68;97642.38;10374440;28;20048;-52
2023/08/09 12:31:46;;;;;;;4.60;2.30;;;;;;;27.40;36.46;97643.41;10374644;28;20025;-50
2023/08/09 12:36:45;;;;;;;2.80;2.50;;;;;;;26.97;35.97;97634.91;10374744;28;20071;-52
2023/08/09 12:41:45;;;;;;;2.50;2.30;;;;;;;27.09;36.38;97625.22;10375061;28;20049;-52
2023/08/09 12:46:43;;;;;;;2.65;2.50;;;;;;;27.02;36.21;97624.78;10374571;28;20072;-50
2023/08/09 12:51:42;;;;;;;2.33;2.13;;;;;;;27.47;34.68;97634.97;10374608;28;20037;-52
2023/08/09 12:56:42;;;;;;;4.32;2.60;;;;;;;27.73;35.04;97609.97;10374014;28;20032;-51
2023/08/09 13:01:41;;;;;;;2.30;2.08;;;;;;;27.72;34.93;97620.75;10373990;28;20076;-58
2023/08/09 13:06:40;;;;;;;4.82;2.38;;;;;;;27.90;34.55;97616.72;10373420;28;20073;-51
2023/08/09 13:11:40;;;;;;;3.75;2.30;;;;;;;27.98;34.46;97614.31;10373915;28;20060;-53
2023/08/09 13:16:39;;;;;;;2.20;2.00;;;;;;;28.07;33.77;97612.84;10374766;28;20068;-50
2023/08/09 13:21:38;;;;;;;3.45;2.15;;;;;;;28.01;33.99;97614.13;10381724;28;20065;-53
2023/08/09 13:26:37;;;;;;;3.30;2.20;;;;;;;27.81;34.66;97604.91;10381717;28;20056;-53
2023/08/09 13:31:35;;;;;;;2.83;2.03;;;;;;;28.02;35.12;97604.28;10378533;28;20072;-50
2023/08/09 13:36:34;;;;;;;2.92;2.00;;;;;;;27.76;34.50;97603.56;10381095;28;20073;-52
2023/08/09 13:41:34;;;;;;;3.70;2.58;;;;;;;27.48;34.50;97604.72;10381838;28;20053;-52
2023/08/09 13:46:33;;;;;;;4.18;2.25;;;;;;;27.26;35.73;97606.25;10381780;28;20067;-53
2023/08/09 13:51:32;;;;;;;2.67;2.47;;;;;;;27.26;35.64;97608.03;10381221;28;20075;-52
2023/08/09 13:56:31;;;;;;;4.03;2.00;;;;;;;27.25;35.23;97607.19;10380590;28;20029;-53
2023/08/09 14:01:30;;;;;;;3.38;2.20;;;;;;;27.35;35.03;97610.03;10380546;28;20029;-52
2023/08/09 14:06:28;;;;;;;2.33;2.13;;;;;;;27.66;35.50;97608.72;10380773;28;20041;-52
2023/08/09 14:11:27;;;;;;;26.45;4.53;;;;;;;27.66;34.34;97578.53;10379877;28;20119;-52
2023/08/09 14:16:26;;;;;;;2.30;2.10;;;;;;;27.76;33.99;97600.91;10378679;28;20040;-51
2023/08/09 14:21:25;;;;;;;3.92;2.47;;;;;;;27.73;35.30;97595.78;10380058;28;20495;-52
2023/08/09 14:26:24;;;;;;;2.30;2.10;;;;;;;27.48;34.58;97572.75;10379392;28;20028;-52
2023/08/09 14:31:23;;;;;;;3.28;1.95;;;;;;;27.67;34.42;97598.91;10378519;28;20060;-50
2023/08/09 14:36:23;;;;;;;2.10;1.80;;;;;;;27.72;33.78;97597.59;10380041;28;20051;-53
2023/08/09 14:41:22;;;;;;;2.95;2.15;;;;;;;27.77;34.22;97597.25;10379656;28;20065;-52
2023/08/09 14:46:21;;;;;;;4.63;2.20;;;;;;;27.80;33.96;97589.03;10379828;28;20499;-53
2023/08/09 14:51:20;;;;;;;3.42;1.90;;;;;;;27.76;34.23;97576.91;10378463;28;20043;-52
2023/08/09 14:56:19;;;;;;;3.00;2.20;;;;;;;27.49;34.61;97595.75;10378800;28;20053;-51
2023/08/09 15:01:18;;;;;;;2.28;1.90;;;;;;;27.62;34.88;97591.25;10378358;28;20095;-52
2023/08/09 15:06:17;;;;;;;3.22;1.92;;;;;;;27.11;35.03;97592.19;10377932;28;20333;-50
2023/08/09 15:11:16;;;;;;;3.22;2.08;;;;;;;27.08;35.39;97572.91;10377711;28;20115;-52
2023/08/09 15:16:15;;;;;;;2.85;2.25;;;;;;;26.74;35.52;97588.53;10378214;28;20044;-52
2023/08/09 15:21:14;;;;;;;2.05;1.90;;;;;;;26.82;35.79;97580.06;10377441;28;20116;-52
2023/08/09 15:26:13;;;;;;;2.75;1.90;;;;;;;26.55;35.78;97579.16;10377208;28;20028;-52
2023/08/09 15:31:12;;;;;;;3.72;2.17;;;;;;;26.23;36.18;97551.25;10377360;28;20059;-50
2023/08/09 15:36:11;;;;;;;3.42;1.95;;;;;;;26.43;36.61;97581.84;10376974;28;20024;-52
2023/08/09 15:41:10;;;;;;;2.42;2.22;;;;;;;26.61;36.36;97588.56;10375859;28;20068;-52
2023/08/09 15:46:09;;;;;;;3.03;2.30;;;;;;;26.73;36.08;97592.19;10376144;28;20028;-52
2023/08/09 15:51:08;;;;;;;4.72;2.28;;;;;;;26.81;35.80;97589.81;10375993;28;20041;-53
2023/08/09 15:56:07;;;;;;;2.63;2.38;;;;;;;26.71;35.83;97589.63;10375619;28;20116;-49
2023/08/09 16:01:07;;;;;;;2.85;2.47;;;;;;;26.63;36.38;97599.97;10376436;28;20096;-52
2023/08/09 16:06:06;;;;;;;3.35;2.08;;;;;;;26.51;36.79;97599.00;10375303;28;20137;-50
2023/08/09 16:11:05;;;;;;;3.92;2.60;;;;;;;26.42;37.19;97594.28;10375347;28;20079;-50
2023/08/09 16:16:04;;;;;;;3.35;2.75;;;;;;;26.30;37.11;97600.41;10375413;28;20460;-52
2023/08/09 16:21:03;;;;;;;3.05;2.10;;;;;;;26.25;37.31;97599.88;10375134;28;20138;-52
2023/08/09 16:26:03;;;;;;;4.03;2.17;;;;;;;26.24;37.65;97595.53;10374769;28;20420;-51
2023/08/09 16:31:02;;;;;;;2.20;2.00;;;;;;;26.12;37.48;97602.50;10373583;28;20084;-53
2023/08/09 16:36:01;;;;;;;2.67;2.28;;;;;;;26.01;37.79;97599.69;10375081;28;20137;-52
2023/08/09 16:40:59;;;;;;;3.58;2.10;;;;;;;25.92;38.80;97603.81;10374342;28;20120;-50
2023/08/09 16:45:58;;;;;;;5.57;2.17;;;;;;;25.79;38.22;97600.25;10374418;28;20131;-50
2023/08/09 16:50:58;;;;;;;3.45;2.20;;;;;;;25.46;39.35;97604.13;10374169;28;20100;-51
2023/08/09 16:55:57;;;;;;;2.65;2.40;;;;;;;25.04;40.11;97603.22;10373948;28;20071;-53
2023/08/09 17:00:56;;;;;;;2.67;2.38;;;;;;;24.84;40.36;97613.19;10374370;28;20071;-52
2023/08/09 17:05:55;;;;;;;3.60;2.65;;;;;;;24.76;40.76;97607.53;10373678;28;20120;-53
2023/08/09 17:10:54;;;;;;;2.92;2.22;;;;;;;24.70;41.02;97610.53;10373945;28;20032;-51
2023/08/09 17:15:53;;;;;;;3.78;2.13;;;;;;;24.54;41.38;97609.75;10374220;28;20041;-52
2023/08/09 17:20:52;;;;;;;3.30;2.38;;;;;;;24.22;41.59;97593.97;10373706;28;20115;-50
2023/08/09 17:25:51;;;;;;;4.78;3.10;;;;;;;24.36;42.62;97620.53;10373516;28;20494;-52
2023/08/09 17:30:50;;;;;;;13.63;6.30;;;;;;;24.14;45.26;97614.72;10367545;28;20064;-52
2023/08/09 17:35:49;;;;;;;11.73;5.53;;;;;;;23.97;46.70;97631.63;10373018;28;20036;-49
2023/08/09 17:40:48;;;;;;;6.72;4.97;;;;;;;23.69;47.13;97634.97;10373183;28;20411;-53
2023/08/09 17:45:47;;;;;;;6.82;4.35;;;;;;;23.46;47.61;97637.06;10373771;28;20076;-53
2023/08/09 17:50:46;;;;;;;9.32;5.47;;;;;;;23.32;48.05;97639.63;10372964;28;20021;-52
2023/08/09 17:55:45;;;;;;;13.85;5.50;;;;;;;23.14;48.54;97641.47;10372969;28;20056;-53
2023/08/09 18:00:44;;;;;;;7.88;4.72;;;;;;;23.02;49.05;97649.16;10372853;28;20518;-52
2023/08/09 18:05:43;;;;;;;8.13;4.90;;;;;;;22.91;49.30;97642.72;10377747;28;20041;-51
2023/08/09 18:10:42;;;;;;;10.25;6.22;;;;;;;22.73;50.02;97652.41;10380187;28;20497;-53
2023/08/09 18:15:41;;;;;;;7.75;3.47;;;;;;;22.36;49.77;97660.41;10380100;28;20465;-51
2023/08/09 18:20:40;;;;;;;6.63;4.25;;;;;;;22.34;49.80;97666.72;10379430;28;20108;-51
2023/08/09 18:25:39;;;;;;;8.38;4.70;;;;;;;22.29;50.02;97674.88;10379651;28;20665;-51
2023/08/09 18:30:38;;;;;;;4.70;3.33;;;;;;;22.13;50.02;97658.94;10378660;28;20412;-52
2023/08/09 18:35:37;;;;;;;3.97;2.60;;;;;;;22.09;50.42;97675.03;10379886;28;20061;-50
2023/08/09 18:40:38;;;;;;;3.83;3.15;;;;;;;22.03;50.37;97677.97;10378527;28;20071;-52
2023/08/09 18:45:37;;;;;;;4.28;3.45;;;;;;;21.95;51.08;97681.81;10378947;28;20064;-51
2023/08/09 18:50:36;;;;;;;5.15;2.90;;;;;;;21.90;50.92;97689.09;10378601;28;20107;-48
2023/08/09 18:55:35;;;;;;;7.93;3.78;;;;;;;21.83;51.78;97695.59;10378460;28;20496;-51
2023/08/09 19:00:36;;;;;;;5.22;3.60;;;;;;;21.70;52.49;97691.81;10378067;28;20567;-51
2023/08/09 19:05:35;;;;;;;4.60;3.80;;;;;;;21.49;53.56;97689.25;10378343;28;20083;-52
2023/08/09 19:10:34;;;;;;;5.57;3.67;;;;;;;21.34;53.55;97690.81;10377853;28;20025;-52
2023/08/09 19:15:33;;;;;;;3.97;3.00;;;;;;;21.17;54.52;97692.44;10376802;28;20881;-52
2023/08/09 19:20:32;;;;;;;6.28;3.50;;;;;;;20.75;55.27;97654.75;10378235;28;20037;-49
2023/08/09 19:25:31;;;;;;;3.42;2.80;;;;;;;20.85;55.58;97710.56;10378002;28;20028;-51
2023/08/09 19:30:30;;;;;;;2.80;2.60;;;;;;;20.68;55.76;97700.72;10376905;28;20102;-53
2023/08/09 19:35:29;;;;;;;2.83;2.53;;;;;;;20.28;56.65;97661.09;10377257;28;20415;-52
2023/08/09 19:40:30;;;;;;;3.13;2.60;;;;;;;20.35;57.15;97693.28;10376255;28;20116;-53
2023/08/09 19:45:29;;;;;;;3.20;2.85;;;;;;;20.16;57.48;97690.53;10376406;28;20068;-53
2023/08/09 19:50:28;;;;;;;3.38;2.78;;;;;;;19.98;58.02;97684.25;10376628;28;20055;-53
2023/08/09 19:55:27;;;;;;;3.60;2.70;;;;;;;19.91;58.70;97679.28;10375918;28;20095;-53
2023/08/09 20:00:28;;;;;;;3.95;2.67;;;;;;;19.75;58.82;97690.44;10376435;28;20044;-53
2023/08/09 20:05:27;;;;;;;7.88;2.78;;;;;;;19.66;59.58;97691.63;10375600;28;20080;-52
2023/08/09 20:10:26;;;;;;;7.82;3.50;;;;;;;19.47;60.76;97673.97;10375530;28;20060;-51
2023/08/09 20:15:25;;;;;;;4.05;3.17;;;;;;;19.40;61.64;97683.84;10375351;28;20076;-51
2023/08/09 20:20:26;;;;;;;4.60;3.30;;;;;;;19.28;62.08;97682.53;10375697;28;20145;-51
2023/08/09 20:25:25;;;;;;;4.38;3.15;;;;;;;19.25;63.00;97698.41;10375005;28;20463;-53
2023/08/09 20:30:24;;;;;;;4.78;3.13;;;;;;;19.16;63.36;97694.38;10375517;28;20053;-51
2023/08/09 20:35:23;;;;;;;6.20;3.50;;;;;;;18.99;64.14;97681.84;10374374;28;20036;-49
2023/08/09 20:40:22;;;;;;;4.60;3.72;;;;;;;19.01;65.80;97705.44;10374384;28;20029;-52
2023/08/09 20:45:21;;;;;;;6.70;4.00;;;;;;;18.92;66.73;97690.00;10373539;28;20040;-52
2023/08/09 20:50:20;;;;;;;8.00;5.18;;;;;;;18.86;66.01;97696.34;10374315;28;20500;-50
2023/08/09 20:55:19;;;;;;;9.02;5.32;;;;;;;18.79;66.16;97687.81;10374008;28;20056;-51
2023/08/09 21:00:18;;;;;;;5.32;4.03;;;;;;;18.69;65.91;97680.28;10373914;28;20040;-51
2023/08/09 21:05:17;;;;;;;3.90;3.35;;;;;;;18.81;65.50;97690.38;10374521;28;20080;-52
2023/08/09 21:10:16;;;;;;;6.05;3.10;;;;;;;18.71;65.42;97696.84;10373590;28;20043;-52
2023/08/09 21:15:15;;;;;;;5.43;3.63;;;;;;;18.65;65.48;97705.78;10373848;28;20589;-52
2023/08/09 21:20:14;;;;;;;5.68;3.28;;;;;;;18.63;65.39;97720.75;10373647;28;20025;-51
2023/08/09 21:25:13;;;;;;;6.15;3.60;;;;;;;18.65;66.85;97723.34;10374457;28;20059;-50
2023/08/09 21:30:12;;;;;;;4.78;3.53;;;;;;;18.54;67.68;97715.81;10373745;28;20025;-52
2023/08/09 21:35:11;;;;;;;4.32;3.45;;;;;;;18.49;68.41;97726.47;10373373;28;20091;-53
2023/08/09 21:40:11;;;;;;;9.13;3.65;;;;;;;18.22;68.48;97675.69;10377632;28;20025;-52
2023/08/09 21:45:10;;;;;;;5.70;3.85;;;;;;;18.28;68.77;97687.78;10381564;28;20419;-54
2023/08/09 21:50:09;;;;;;;4.57;3.92;;;;;;;18.38;69.24;97710.19;10380958;28;20049;-53
2023/08/09 21:55:08;;;;;;;6.15;3.67;;;;;;;18.40;69.84;97734.66;10381044;28;20423;-54
2023/08/09 22:00:10;;;;;;;6.13;4.25;;;;;;;18.38;70.29;97721.56;10380342;28;20064;-51
2023/08/09 22:05:09;;;;;;;4.25;3.33;;;;;;;18.28;70.89;97712.28;10379896;28;20069;-51
2023/08/09 22:10:08;;;;;;;5.82;3.80;;;;;;;18.23;71.44;97715.97;10379958;28;20051;-50
2023/08/09 22:15:09;;;;;;;8.85;4.20;;;;;;;18.22;72.45;97701.09;10379838;28;20067;-52
2023/08/09 22:20:08;;;;;;;5.63;3.92;;;;;;;18.14;72.72;97706.63;10379583;28;20060;-51
2023/08/09 22:25:09;;;;;;;5.43;3.70;;;;;;;18.12;73.01;97698.78;10379849;28;20075;-52
2023/08/09 22:30:10;;;;;;;5.22;4.03;;;;;;;17.94;75.12;97700.25;10379202;28;20071;-52
2023/08/09 22:35:09;;;;;;;4.45;3.78;;;;;;;17.89;75.47;97701.28;10379430;28;20072;-52
2023/08/09 22:40:08;;;;;;;6.28;4.13;;;;;;;17.83;75.98;97701.47;10378819;28;20025;-51
2023/08/09 22:45:08;;;;;;;9.60;4.63;;;;;;;17.77;75.72;97697.25;10378873;28;20498;-49
2023/08/09 22:50:08;;;;;;;5.80;4.68;;;;;;;17.77;75.45;97676.25;10378223;28;20052;-52
2023/08/09 22:55:08;;;;;;;6.10;4.20;;;;;;;17.67;75.66;97680.91;10378450;28;20068;-51
2023/08/09 23:00:10;;;;;;;7.22;4.03;;;;;;;17.58;76.47;97683.81;10381068;28;20454;-49
2023/08/09 23:05:09;;;;;;;4.97;3.72;;;;;;;17.46;77.45;97684.19;10381904;28;21639;-52
2023/08/09 23:10:09;;;;;;;4.45;3.42;;;;;;;17.33;78.00;97666.19;10381058;28;20024;-52
2023/08/09 23:15:11;;;;;;;5.53;4.05;;;;;;;17.20;78.99;97669.22;10380886;28;20056;-52
2023/08/09 23:20:10;;;;;;;5.50;4.50;;;;;;;17.19;78.69;97673.63;10380832;28;20068;-52
2023/08/09 23:25:09;;;;;;;6.78;4.85;;;;;;;17.29;78.19;97654.06;10380671;28;20029;-52
2023/08/09 23:30:08;;;;;;;5.63;4.13;;;;;;;17.32;77.92;97674.09;10380702;28;20037;-50
2023/08/09 23:35:08;;;;;;;9.73;5.00;;;;;;;17.20;78.69;97687.59;10380820;28;20553;-52